Time;durP1;ratioP1;P1;durP2;ratioP2;P2;SDS_P1;SDS_P2;PMS_P1;PMS_P2;Temp;Humidity;BMP_temperature;BMP_pressure;BME280_temperature;BME280_humidity;BME280_pressure;Samples;Min_cycle;Max_cycle;Signal;HPM_P1;HPM_P2
2021/12/13 00:01:55;;;;;;;4.27;2.90;;;;;;;;;;5031122;28;20940;-53
2021/12/13 00:04:31;;;;;;;7.57;3.23;;;;;;;;;;5018060;28;20689;-52
2021/12/13 00:07:03;;;;;;;9.07;3.23;;;;;;;;;;5045747;28;21133;-53
2021/12/13 00:09:29;;;;;;;3.90;2.90;;;;;;;;;;5039538;28;20720;-53
2021/12/13 00:11:56;;;;;;;3.80;2.80;;;;;;;;;;5059666;28;20439;-51
2021/12/13 00:14:24;;;;;;;6.70;4.77;;;;;;;;;;5015866;28;20446;-52
2021/12/13 00:16:51;;;;;;;3.30;3.00;;;;;;;;;;5046366;28;20429;-53
2021/12/13 00:19:21;;;;;;;6.00;3.00;;;;;;;;;;5012618;28;20442;-51
2021/12/13 00:22:12;;;;;;;4.23;3.37;;;;;;;;;;5038170;28;20995;-51
2021/12/13 00:24:46;;;;;;;2.73;2.53;;;;;;;;;;4991437;28;20432;-52
2021/12/13 00:27:18;;;;;;;3.57;3.23;;;;;;;;;;5037293;28;20511;-51
2021/12/13 00:30:07;;;;;;;3.57;2.73;;;;;;;;;;5033725;28;20474;-53
2021/12/13 00:32:45;;;;;;;3.33;2.50;;;;;;;;;;5036103;28;21380;-52
2021/12/13 00:35:12;;;;;;;6.43;3.23;;;;;;;;;;5011728;28;20446;-53
2021/12/13 00:37:40;;;;;;;3.03;2.53;;;;;;;;;;5038319;28;20415;-53
2021/12/13 00:40:11;;;;;;;3.30;2.97;;;;;;;;;;5050250;28;20434;-53
2021/12/13 00:42:42;;;;;;;5.07;3.17;;;;;;;;;;5053353;28;20548;-53
2021/12/13 00:45:10;;;;;;;4.30;3.10;;;;;;;;;;5015455;28;21176;-52
2021/12/13 00:47:40;;;;;;;4.93;3.50;;;;;;;;;;5039065;28;20426;-52
2021/12/13 00:50:32;;;;;;;4.77;2.90;;;;;;;;;;5015442;28;20551;-53
2021/12/13 00:53:05;;;;;;;3.43;2.77;;;;;;;;;;5021139;28;20521;-52
2021/12/13 00:55:31;;;;;;;5.13;3.10;;;;;;;;;;5033250;28;20430;-51
2021/12/13 01:26:00;;;;;;;9.07;4.20;;;;;;;;;;5038038;28;20499;-52
2021/12/13 01:28:28;;;;;;;4.90;3.77;;;;;;;;;;5018295;28;20486;-54
2021/12/13 01:31:04;;;;;;;3.93;2.97;;;;;;;;;;5044104;28;20999;-51
2021/12/13 01:33:30;;;;;;;4.70;3.50;;;;;;;;;;4991800;28;20536;-52
2021/12/13 01:36:00;;;;;;;9.90;3.53;;;;;;;;;;5044016;28;20537;-52
2021/12/13 01:38:33;;;;;;;3.43;3.10;;;;;;;;;;5018549;28;20513;-51
2021/12/13 01:41:00;;;;;;;4.90;3.20;;;;;;;;;;5043527;28;20456;-53
2021/12/13 01:43:27;;;;;;;3.90;3.40;;;;;;;;;;5022610;28;20453;-52
2021/12/13 01:45:53;;;;;;;4.87;3.43;;;;;;;;;;5042389;28;20427;-52
2021/12/13 01:48:33;;;;;;;4.77;3.90;;;;;;;;;;5013666;28;20586;-52
2021/12/13 01:51:05;;;;;;;5.00;4.50;;;;;;;;;;5036594;28;20464;-52
2021/12/13 01:53:39;;;;;;;6.97;3.87;;;;;;;;;;5031171;28;20439;-52
2021/12/13 01:56:24;;;;;;;8.77;3.87;;;;;;;;;;5035757;28;20437;-53
2021/12/13 01:59:04;;;;;;;4.47;3.37;;;;;;;;;;5032500;28;20450;-52
2021/12/13 02:01:36;;;;;;;4.67;3.53;;;;;;;;;;5014012;28;20442;-52
2021/12/13 02:04:04;;;;;;;5.33;4.03;;;;;;;;;;5025104;28;21043;-55
2021/12/13 02:06:37;;;;;;;6.50;3.73;;;;;;;;;;5004913;28;20450;-52
2021/12/13 02:09:28;;;;;;;5.80;3.93;;;;;;;;;;5037896;28;20910;-53
2021/12/13 02:12:01;;;;;;;4.20;3.70;;;;;;;;;;5034390;28;20994;-53
2021/12/13 02:14:29;;;;;;;4.80;3.70;;;;;;;;;;5021711;28;20914;-59
2021/12/13 02:17:07;;;;;;;4.90;3.60;;;;;;;;;;5020651;28;20453;-52
2021/12/13 02:19:34;;;;;;;6.80;3.70;;;;;;;;;;5040788;28;20860;-53
2021/12/13 02:22:05;;;;;;;5.23;4.33;;;;;;;;;;5022925;28;20508;-52
2021/12/13 02:24:40;;;;;;;7.90;4.03;;;;;;;;;;5012937;28;20446;-53
2021/12/13 02:27:08;;;;;;;6.83;3.60;;;;;;;;;;5041104;28;20453;-52
2021/12/13 02:29:37;;;;;;;4.60;4.00;;;;;;;;;;5017252;28;21210;-52
2021/12/13 02:32:04;;;;;;;5.50;4.30;;;;;;;;;;5041337;28;20466;-51
2021/12/13 02:34:30;;;;;;;6.03;4.50;;;;;;;;;;5047739;28;20470;-52
2021/12/13 02:36:57;;;;;;;4.77;3.63;;;;;;;;;;5046615;28;20438;-52
2021/12/13 02:39:44;;;;;;;6.43;4.17;;;;;;;;;;5035300;28;20564;-52
2021/12/13 02:42:16;;;;;;;8.00;4.00;;;;;;;;;;5044222;28;20442;-52
2021/12/13 02:44:43;;;;;;;7.73;4.30;;;;;;;;;;5010149;28;20866;-51
2021/12/13 02:47:15;;;;;;;7.53;4.87;;;;;;;;;;5045171;28;20438;-53
2021/12/13 02:49:41;;;;;;;5.50;4.60;;;;;;;;;;5030124;28;23431;-52
2021/12/13 02:52:07;;;;;;;7.20;4.37;;;;;;;;;;5048993;28;20444;-52
2021/12/13 02:54:36;;;;;;;7.43;5.10;;;;;;;;;;5041892;28;20462;-51
2021/12/13 02:57:06;;;;;;;15.40;5.83;;;;;;;;;;5047790;28;20480;-51
2021/12/13 02:59:33;;;;;;;7.10;4.87;;;;;;;;;;5035952;28;20995;-53
2021/12/13 03:02:05;;;;;;;7.03;5.37;;;;;;;;;;5045937;28;21024;-52
2021/12/13 03:04:31;;;;;;;6.57;5.60;;;;;;;;;;5022873;28;20536;-50
2021/12/13 03:07:08;;;;;;;6.13;5.53;;;;;;;;;;5046968;28;20488;-53
2021/12/13 03:09:34;;;;;;;4.77;3.70;;;;;;;;;;5012403;28;20769;-52
2021/12/13 03:12:01;;;;;;;11.10;6.20;;;;;;;;;;5047137;28;20881;-52
2021/12/13 03:14:47;;;;;;;5.27;4.00;;;;;;;;;;5037151;28;20564;-53
2021/12/13 03:17:21;;;;;;;5.60;4.30;;;;;;;;;;5039321;28;20722;-51
2021/12/13 03:19:47;;;;;;;4.50;3.53;;;;;;;;;;5010655;28;20439;-51
2021/12/13 03:22:25;;;;;;;4.90;3.80;;;;;;;;;;5039886;28;20460;-51
2021/12/13 03:24:52;;;;;;;6.03;4.57;;;;;;;;;;5014429;28;20442;-53
2021/12/13 03:27:27;;;;;;;7.60;5.47;;;;;;;;;;5038223;28;20530;-52
2021/12/13 03:30:06;;;;;;;5.80;4.73;;;;;;;;;;5017029;28;20450;-51
2021/12/13 03:32:34;;;;;;;9.17;4.57;;;;;;;;;;5041854;28;20427;-52
2021/12/13 03:35:06;;;;;;;9.23;4.53;;;;;;;;;;5017652;28;20453;-52
2021/12/13 03:37:32;;;;;;;6.03;4.50;;;;;;;;;;5042673;28;20454;-54
2021/12/13 03:40:04;;;;;;;5.07;3.40;;;;;;;;;;4994544;28;20446;-53
2021/12/13 03:42:32;;;;;;;10.37;4.63;;;;;;;;;;5040378;28;20500;-51
2021/12/13 03:44:59;;;;;;;8.13;4.00;;;;;;;;;;5036112;28;20447;-53
2021/12/13 03:47:29;;;;;;;6.67;4.67;;;;;;;;;;5040190;28;20446;-53
2021/12/13 03:49:58;;;;;;;4.60;3.70;;;;;;;;;;5030039;28;20451;-55
2021/12/13 03:52:27;;;;;;;5.60;4.20;;;;;;;;;;5039652;28;20450;-53
2021/12/13 03:54:54;;;;;;;4.67;4.27;;;;;;;;;;5033276;28;20473;-52
2021/12/13 03:57:20;;;;;;;6.93;4.33;;;;;;;;;;5039443;28;20432;-55
2021/12/13 03:59:46;;;;;;;8.03;4.73;;;;;;;;;;5009485;28;20442;-52
2021/12/13 04:02:18;;;;;;;5.50;3.97;;;;;;;;;;5039813;28;20488;-51
2021/12/13 04:04:46;;;;;;;6.43;4.77;;;;;;;;;;5020556;28;20947;-55
2021/12/13 04:07:18;;;;;;;5.80;4.27;;;;;;;;;;5040496;28;20512;-53
2021/12/13 04:09:44;;;;;;;6.43;4.10;;;;;;;;;;5038611;28;20477;-52
2021/12/13 04:12:12;;;;;;;5.87;5.30;;;;;;;;;;5042242;28;20446;-51
2021/12/13 04:14:40;;;;;;;6.23;3.60;;;;;;;;;;5030167;28;20577;-53
2021/12/13 04:20:09;;;;;;;6.03;4.20;;;;;;;;;;5034675;28;20449;-53
2021/12/13 04:22:38;;;;;;;4.73;4.23;;;;;;;;;;5046330;28;20557;-53
2021/12/13 04:25:07;;;;;;;10.50;4.43;;;;;;;;;;5040244;28;20430;-52
2021/12/13 04:27:48;;;;;;;6.97;4.37;;;;;;;;;;5049187;28;20460;-53
2021/12/13 04:30:32;;;;;;;6.20;4.23;;;;;;;;;;5047456;28;20561;-52
2021/12/13 04:33:00;;;;;;;4.77;4.23;;;;;;;;;;5058263;28;20423;-52
2021/12/13 04:35:27;;;;;;;6.20;4.10;;;;;;;;;;5016547;28;20494;-52
2021/12/13 04:37:54;;;;;;;15.33;4.43;;;;;;;;;;5043697;28;20443;-52
2021/12/13 04:40:22;;;;;;;8.30;3.97;;;;;;;;;;5009404;28;20446;-54
2021/12/13 04:43:03;;;;;;;10.00;4.20;;;;;;;;;;5038228;28;20549;-54
2021/12/13 04:45:31;;;;;;;6.93;3.37;;;;;;;;;;5030897;28;20438;-59
2021/12/13 04:48:02;;;;;;;6.53;4.17;;;;;;;;;;5039573;28;20967;-51
2021/12/13 04:50:32;;;;;;;5.97;4.00;;;;;;;;;;4994795;28;21057;-51
2021/12/13 04:53:02;;;;;;;5.30;4.50;;;;;;;;;;5038056;28;21269;-52
2021/12/13 04:55:29;;;;;;;4.97;4.00;;;;;;;;;;5033555;28;20959;-52
2021/12/13 04:57:56;;;;;;;5.80;4.70;;;;;;;;;;5039932;28;20422;-54
2021/12/13 05:00:22;;;;;;;5.80;4.00;;;;;;;;;;5001569;28;20876;-53
2021/12/13 05:02:50;;;;;;;7.27;5.00;;;;;;;;;;5034328;28;20515;-51
2021/12/13 05:05:16;;;;;;;5.13;3.80;;;;;;;;;;5017936;28;21197;-53
2021/12/13 05:07:48;;;;;;;7.90;5.43;;;;;;;;;;5034328;28;20488;-52
2021/12/13 05:10:25;;;;;;;5.97;4.40;;;;;;;;;;5019489;28;21328;-51
2021/12/13 05:12:58;;;;;;;5.70;4.20;;;;;;;;;;5036376;28;20694;-51
2021/12/13 05:15:26;;;;;;;5.97;4.73;;;;;;;;;;5043346;28;20529;-57
2021/12/13 05:17:53;;;;;;;9.13;4.50;;;;;;;;;;5037191;28;20425;-51
2021/12/13 05:20:29;;;;;;;6.30;4.67;;;;;;;;;;5039671;28;21003;-53
2021/12/13 05:23:01;;;;;;;7.27;4.20;;;;;;;;;;5038397;28;20430;-52
2021/12/13 05:25:30;;;;;;;6.80;4.57;;;;;;;;;;5033853;28;20426;-51
2021/12/13 05:28:02;;;;;;;4.57;4.10;;;;;;;;;;5032634;28;21018;-52
2021/12/13 05:30:32;;;;;;;8.20;5.50;;;;;;;;;;5022909;28;20911;-53
2021/12/13 05:33:00;;;;;;;8.13;4.53;;;;;;;;;;5038216;28;20435;-51
2021/12/13 05:35:41;;;;;;;6.33;4.67;;;;;;;;;;5009468;28;20507;-53
2021/12/13 05:38:10;;;;;;;6.10;5.00;;;;;;;;;;5042437;28;20987;-51
2021/12/13 05:40:40;;;;;;;5.93;4.80;;;;;;;;;;5011411;28;21049;-52
2021/12/13 05:43:15;;;;;;;5.33;4.60;;;;;;;;;;5040123;28;20431;-52
2021/12/13 05:45:46;;;;;;;6.33;4.87;;;;;;;;;;5016546;28;20449;-52
2021/12/13 05:48:26;;;;;;;5.60;4.27;;;;;;;;;;5017142;28;21217;-52
2021/12/13 05:50:56;;;;;;;4.83;4.30;;;;;;;;;;5035871;28;21033;-51
2021/12/13 05:53:34;;;;;;;6.53;4.80;;;;;;;;;;5022545;28;20450;-52
2021/12/13 05:56:10;;;;;;;4.30;3.90;;;;;;;;;;5023470;28;20444;-52
2021/12/13 05:58:43;;;;;;;5.17;4.53;;;;;;;;;;5041386;28;20435;-52
2021/12/13 06:01:15;;;;;;;4.60;3.87;;;;;;;;;;5027894;28;20431;-52
2021/12/13 06:03:50;;;;;;;5.27;4.63;;;;;;;;;;5042398;28;20833;-55
2021/12/13 06:06:19;;;;;;;6.07;4.50;;;;;;;;;;5039462;28;20447;-52
2021/12/13 06:08:46;;;;;;;5.70;4.60;;;;;;;;;;5042299;28;20827;-52
2021/12/13 06:11:13;;;;;;;5.80;4.23;;;;;;;;;;5020519;28;20428;-52
2021/12/13 06:13:55;;;;;;;4.80;4.33;;;;;;;;;;5048823;28;20448;-55
2021/12/13 06:16:41;;;;;;;5.80;4.03;;;;;;;;;;5061139;28;20533;-54
2021/12/13 06:19:09;;;;;;;5.50;4.50;;;;;;;;;;5028765;28;20522;-57
2021/12/13 06:21:39;;;;;;;6.27;3.87;;;;;;;;;;5058899;28;20435;-52
2021/12/13 06:24:14;;;;;;;6.90;4.63;;;;;;;;;;5022469;28;20445;-52
2021/12/13 06:26:42;;;;;;;5.40;4.20;;;;;;;;;;5048323;28;20446;-53
2021/12/13 06:29:08;;;;;;;5.10;4.60;;;;;;;;;;5001344;28;20523;-51
2021/12/13 06:31:45;;;;;;;6.80;4.07;;;;;;;;;;5043951;28;20430;-53
2021/12/13 06:34:15;;;;;;;5.80;4.70;;;;;;;;;;5009190;28;20460;-50
2021/12/13 06:36:43;;;;;;;9.20;4.33;;;;;;;;;;5049737;28;20470;-54
2021/12/13 06:39:19;;;;;;;10.43;5.90;;;;;;;;;;5028616;28;20537;-53
2021/12/13 06:41:46;;;;;;;7.67;4.50;;;;;;;;;;5047745;28;20977;-52
2021/12/13 06:44:26;;;;;;;4.90;4.40;;;;;;;;;;5039755;28;20469;-52
2021/12/13 06:47:01;;;;;;;5.90;4.67;;;;;;;;;;5062827;28;20419;-53
2021/12/13 06:49:31;;;;;;;6.30;4.90;;;;;;;;;;5025893;28;20481;-53
2021/12/13 06:52:08;;;;;;;7.37;5.10;;;;;;;;;;5031036;28;20427;-52
2021/12/13 06:54:53;;;;;;;6.37;5.30;;;;;;;;;;5047271;28;20436;-53
2021/12/13 06:57:54;;;;;;;6.03;4.37;;;;;;;;;;5041937;28;20434;-53
2021/12/13 07:00:26;;;;;;;5.47;3.93;;;;;;;;;;5010521;28;20460;-52
2021/12/13 07:03:11;;;;;;;6.40;3.70;;;;;;;;;;5046922;28;20426;-51
2021/12/13 07:05:43;;;;;;;6.47;5.40;;;;;;;;;;5048162;28;20438;-54
2021/12/13 07:08:16;;;;;;;11.53;5.93;;;;;;;;;;5046781;28;21171;-53
2021/12/13 07:10:44;;;;;;;6.93;4.87;;;;;;;;;;5019291;28;20451;-53
2021/12/13 07:13:32;;;;;;;5.10;4.63;;;;;;;;;;5044715;28;20434;-52
2021/12/13 07:16:32;;;;;;;6.30;4.90;;;;;;;;;;5040704;28;20441;-53
2021/12/13 07:19:21;;;;;;;7.40;4.73;;;;;;;;;;5037910;28;20431;-52
2021/12/13 07:21:49;;;;;;;5.67;4.50;;;;;;;;;;5043484;28;20447;-54
2021/12/13 07:24:18;;;;;;;7.10;5.07;;;;;;;;;;5016837;28;20795;-52
2021/12/13 07:26:52;;;;;;;8.43;4.90;;;;;;;;;;5044588;28;20474;-53
2021/12/13 07:29:25;;;;;;;6.73;5.07;;;;;;;;;;5000333;28;20785;-52
2021/12/13 07:32:09;;;;;;;8.47;4.97;;;;;;;;;;5043683;28;20882;-55
2021/12/13 07:34:47;;;;;;;7.20;4.63;;;;;;;;;;5016611;28;20470;-53
2021/12/13 07:37:14;;;;;;;6.10;5.23;;;;;;;;;;5042071;28;20442;-54
2021/12/13 07:39:40;;;;;;;8.83;5.20;;;;;;;;;;5020971;28;20496;-53
2021/12/13 07:42:07;;;;;;;5.37;4.33;;;;;;;;;;5047265;28;20470;-54
2021/12/13 07:44:33;;;;;;;7.17;4.30;;;;;;;;;;5032797;28;20434;-52
2021/12/13 07:47:00;;;;;;;5.67;4.37;;;;;;;;;;5040932;28;20442;-53
2021/12/13 07:49:30;;;;;;;7.63;4.37;;;;;;;;;;5038548;28;20478;-52
2021/12/13 07:51:58;;;;;;;5.87;4.50;;;;;;;;;;5046984;28;20431;-52
2021/12/13 07:54:25;;;;;;;6.37;5.70;;;;;;;;;;5019978;28;20438;-53
2021/12/13 07:56:56;;;;;;;9.37;6.13;;;;;;;;;;5039519;28;20431;-54
2021/12/13 07:59:27;;;;;;;9.13;4.67;;;;;;;;;;5018090;28;20478;-53
2021/12/13 08:01:53;;;;;;;7.13;6.43;;;;;;;;;;5044469;28;20457;-53
2021/12/13 08:04:22;;;;;;;8.90;5.87;;;;;;;;;;5012438;28;20703;-52
2021/12/13 08:06:55;;;;;;;9.43;7.43;;;;;;;;;;5047734;28;20848;-56
2021/12/13 08:09:23;;;;;;;10.80;5.33;;;;;;;;;;5014884;28;20610;-53
2021/12/13 08:11:57;;;;;;;7.33;5.37;;;;;;;;;;5046422;28;20439;-53
2021/12/13 08:14:29;;;;;;;6.93;5.70;;;;;;;;;;5030038;28;20453;-53
2021/12/13 08:16:55;;;;;;;9.63;6.70;;;;;;;;;;5041307;28;20525;-54
2021/12/13 08:19:25;;;;;;;8.80;6.67;;;;;;;;;;5039004;28;20947;-53
2021/12/13 08:21:56;;;;;;;8.13;6.07;;;;;;;;;;5044673;28;20886;-53
2021/12/13 08:24:24;;;;;;;13.20;6.77;;;;;;;;;;5020742;28;20431;-53
2021/12/13 08:26:53;;;;;;;13.03;7.30;;;;;;;;;;5041876;28;20677;-54
2021/12/13 08:29:27;;;;;;;7.70;6.00;;;;;;;;;;5016524;28;20466;-53
2021/12/13 08:31:53;;;;;;;5.97;5.37;;;;;;;;;;5041847;28;20430;-52
2021/12/13 08:34:27;;;;;;;8.57;5.67;;;;;;;;;;5051373;28;20470;-53
2021/12/13 08:36:53;;;;;;;9.87;6.70;;;;;;;;;;5044351;28;20465;-51
2021/12/13 08:39:19;;;;;;;6.43;5.17;;;;;;;;;;5001506;28;20559;-54
2021/12/13 08:41:59;;;;;;;7.97;5.67;;;;;;;;;;5045747;28;21043;-53
2021/12/13 08:44:25;;;;;;;10.00;5.20;;;;;;;;;;5012809;28;20439;-53
2021/12/13 08:46:57;;;;;;;7.03;5.57;;;;;;;;;;5042047;28;20438;-51
2021/12/13 08:49:23;;;;;;;11.67;5.20;;;;;;;;;;5023238;28;20478;-53
2021/12/13 08:51:57;;;;;;;8.00;4.93;;;;;;;;;;5043569;28;20433;-55
2021/12/13 08:54:33;;;;;;;10.13;5.20;;;;;;;;;;5019716;28;20440;-53
2021/12/13 08:56:59;;;;;;;7.17;5.17;;;;;;;;;;5045654;28;20513;-54
2021/12/13 08:59:27;;;;;;;10.90;6.53;;;;;;;;;;5036062;28;20932;-53
2021/12/13 09:01:55;;;;;;;10.07;6.43;;;;;;;;;;5041156;28;20480;-53
2021/12/13 09:04:22;;;;;;;10.97;6.10;;;;;;;;;;5036971;28;20778;-53
2021/12/13 09:06:49;;;;;;;10.67;6.40;;;;;;;;;;5043712;28;20791;-53
2021/12/13 09:09:17;;;;;;;10.57;6.67;;;;;;;;;;5019213;28;21023;-53
2021/12/13 09:11:58;;;;;;;8.93;6.37;;;;;;;;;;5042196;28;20959;-53
2021/12/13 09:14:29;;;;;;;9.00;6.47;;;;;;;;;;4997715;28;20576;-53
2021/12/13 09:17:10;;;;;;;10.70;7.33;;;;;;;;;;5040728;28;20437;-53
2021/12/13 09:19:49;;;;;;;17.53;7.93;;;;;;;;;;5018977;28;20434;-54
2021/12/13 09:22:24;;;;;;;9.97;7.70;;;;;;;;;;5011093;28;20446;-54
2021/12/13 09:24:52;;;;;;;17.30;8.50;;;;;;;;;;5038850;28;20438;-52
2021/12/13 09:27:25;;;;;;;10.00;7.90;;;;;;;;;;5018731;28;20540;-52
2021/12/13 09:30:10;;;;;;;8.93;7.37;;;;;;;;;;5038931;28;20503;-53
2021/12/13 09:32:39;;;;;;;10.47;7.20;;;;;;;;;;5021288;28;20438;-53
2021/12/13 09:35:20;;;;;;;11.13;7.10;;;;;;;;;;5039064;28;20443;-52
2021/12/13 09:37:46;;;;;;;13.27;7.17;;;;;;;;;;5031754;28;20426;-53
2021/12/13 09:40:12;;;;;;;8.83;6.83;;;;;;;;;;5048742;28;20439;-52
2021/12/13 09:42:46;;;;;;;18.90;7.90;;;;;;;;;;5044498;28;20457;-52
2021/12/13 09:45:13;;;;;;;17.00;8.73;;;;;;;;;;5044405;28;20419;-53
2021/12/13 09:47:40;;;;;;;12.07;8.00;;;;;;;;;;4992141;28;22155;-51
2021/12/13 09:50:11;;;;;;;10.67;7.20;;;;;;;;;;5029574;28;20470;-51
2021/12/13 09:52:38;;;;;;;10.10;6.63;;;;;;;;;;5042340;28;20512;-51
2021/12/13 09:55:10;;;;;;;9.43;6.97;;;;;;;;;;5041256;28;20434;-53
2021/12/13 09:57:38;;;;;;;9.83;5.83;;;;;;;;;;5034882;28;20455;-53
2021/12/13 10:00:15;;;;;;;12.80;7.30;;;;;;;;;;5032148;28;20426;-52
2021/12/13 10:02:43;;;;;;;9.43;5.67;;;;;;;;;;5043451;28;20438;-53
2021/12/13 10:05:10;;;;;;;7.30;4.27;;;;;;;;;;5043454;28;20571;-52
2021/12/13 10:07:37;;;;;;;8.13;5.30;;;;;;;;;;5047247;28;20430;-52
2021/12/13 10:10:11;;;;;;;9.90;4.77;;;;;;;;;;5047021;28;20478;-54
2021/12/13 10:12:41;;;;;;;6.90;4.63;;;;;;;;;;5044940;28;20858;-54
2021/12/13 10:15:09;;;;;;;5.50;4.40;;;;;;;;;;5023035;28;20756;-54
2021/12/13 10:17:44;;;;;;;5.73;3.70;;;;;;;;;;5030527;28;20443;-53
2021/12/13 10:20:25;;;;;;;6.43;4.43;;;;;;;;;;5029128;28;20469;-53
2021/12/13 10:22:52;;;;;;;4.83;4.03;;;;;;;;;;5025101;28;20430;-54
2021/12/13 10:25:19;;;;;;;3.20;2.90;;;;;;;;;;5051350;28;20430;-53
2021/12/13 10:27:46;;;;;;;3.10;2.80;;;;;;;;;;5025423;28;20486;-54
2021/12/13 10:30:14;;;;;;;3.40;3.10;;;;;;;;;;5059019;28;20453;-55
2021/12/13 10:32:42;;;;;;;4.50;3.30;;;;;;;;;;5024015;28;20449;-53
2021/12/13 10:35:15;;;;;;;4.70;3.00;;;;;;;;;;5027097;28;20450;-53
2021/12/13 10:37:43;;;;;;;5.30;3.30;;;;;;;;;;5048683;28;20806;-53
2021/12/13 10:40:28;;;;;;;7.80;4.57;;;;;;;;;;5043303;28;20805;-54
2021/12/13 10:42:55;;;;;;;4.67;4.03;;;;;;;;;;5048745;28;20470;-54
2021/12/13 10:45:24;;;;;;;6.20;4.30;;;;;;;;;;5021062;28;21191;-54
2021/12/13 10:47:52;;;;;;;6.50;5.57;;;;;;;;;;5048142;28;20491;-53
2021/12/13 10:50:20;;;;;;;4.23;3.67;;;;;;;;;;5046021;28;20426;-54
2021/12/13 10:52:48;;;;;;;6.07;4.27;;;;;;;;;;5048245;28;20888;-54
2021/12/13 10:55:19;;;;;;;4.97;3.10;;;;;;;;;;5010467;28;20569;-54
2021/12/13 10:57:48;;;;;;;3.37;2.90;;;;;;;;;;5046922;28;20454;-53
2021/12/13 11:00:28;;;;;;;3.90;3.00;;;;;;;;;;5019133;28;21560;-53
2021/12/13 11:02:55;;;;;;;5.87;2.83;;;;;;;;;;5059320;28;20797;-54
2021/12/13 11:05:22;;;;;;;4.50;3.60;;;;;;;;;;5028434;28;20496;-53
2021/12/13 11:07:48;;;;;;;5.00;2.40;;;;;;;;;;5051001;28;20572;-54
2021/12/13 11:10:17;;;;;;;2.70;2.30;;;;;;;;;;5030909;28;20450;-53
2021/12/13 11:12:45;;;;;;;5.63;2.47;;;;;;;;;;5048814;28;20454;-52
2021/12/13 11:15:18;;;;;;;4.97;3.33;;;;;;;;;;5018174;28;21075;-52
2021/12/13 11:17:44;;;;;;;3.50;2.50;;;;;;;;;;5021773;28;20865;-53
2021/12/13 11:20:11;;;;;;;2.20;2.00;;;;;;;;;;5048184;28;20466;-55
2021/12/13 11:22:38;;;;;;;4.87;2.23;;;;;;;;;;5040197;28;21042;-52
2021/12/13 11:25:10;;;;;;;2.97;2.77;;;;;;;;;;5044181;28;20533;-54
2021/12/13 11:28:19;;;;;;;3.00;2.80;;;;;;;;;;5043868;28;20450;-54
2021/12/13 11:30:50;;;;;;;5.93;1.87;;;;;;;;;;5036263;28;20460;-52
2021/12/13 11:33:35;;;;;;;3.30;1.93;;;;;;;;;;5049416;28;20825;-52
2021/12/13 11:36:02;;;;;;;2.83;2.50;;;;;;;;;;5045104;28;21035;-52
2021/12/13 11:38:51;;;;;;;3.03;2.10;;;;;;;;;;5046539;28;21022;-53
2021/12/13 11:41:23;;;;;;;2.50;2.30;;;;;;;;;;5039826;28;20434;-53
2021/12/13 11:44:11;;;;;;;2.93;2.33;;;;;;;;;;5045958;28;20426;-53
2021/12/13 11:46:56;;;;;;;6.33;2.80;;;;;;;;;;5042477;28;20442;-53
2021/12/13 11:49:47;;;;;;;4.40;3.10;;;;;;;;;;5022441;28;21345;-52
2021/12/13 11:52:23;;;;;;;6.50;3.50;;;;;;;;;;5040122;28;20430;-53
2021/12/13 11:55:09;;;;;;;4.17;3.40;;;;;;;;;;5043318;28;20490;-53
2021/12/13 11:57:55;;;;;;;4.17;2.50;;;;;;;;;;5048169;28;20453;-52
2021/12/13 12:00:40;;;;;;;4.37;3.07;;;;;;;;;;5005009;28;20437;-53
2021/12/13 12:03:22;;;;;;;5.37;3.27;;;;;;;;;;5042374;28;20475;-53
2021/12/13 12:06:07;;;;;;;7.50;4.10;;;;;;;;;;5043996;28;20819;-53
2021/12/13 12:08:51;;;;;;;6.47;4.10;;;;;;;;;;5045050;28;20486;-54
2021/12/13 12:11:23;;;;;;;4.47;3.33;;;;;;;;;;5035302;28;20513;-53
2021/12/13 12:14:03;;;;;;;7.33;3.50;;;;;;;;;;5038699;28;20431;-54
2021/12/13 12:16:30;;;;;;;5.13;3.40;;;;;;;;;;5041953;28;20453;-54
2021/12/13 12:19:00;;;;;;;3.80;3.20;;;;;;;;;;5036308;28;20502;-53
2021/12/13 12:21:45;;;;;;;6.50;3.67;;;;;;;;;;5055081;28;20577;-53
2021/12/13 12:24:21;;;;;;;4.57;3.20;;;;;;;;;;5037913;28;20426;-53
2021/12/13 12:26:50;;;;;;;4.40;3.30;;;;;;;;;;5042290;28;20517;-54
2021/12/13 12:29:17;;;;;;;8.83;4.30;;;;;;;;;;5038244;28;20532;-53
2021/12/13 12:31:43;;;;;;;7.87;3.63;;;;;;;;;;5043430;28;20434;-53
2021/12/13 12:34:19;;;;;;;4.87;3.67;;;;;;;;;;5033865;28;20443;-53
2021/12/13 12:36:48;;;;;;;4.13;3.40;;;;;;;;;;5046678;28;20456;-53
2021/12/13 12:39:33;;;;;;;5.00;4.47;;;;;;;;;;5034326;28;20467;-55
2021/12/13 12:42:18;;;;;;;6.67;3.97;;;;;;;;;;5047542;28;20498;-53
2021/12/13 12:44:58;;;;;;;8.80;5.70;;;;;;;;;;5018964;28;20487;-53
2021/12/13 12:47:28;;;;;;;7.63;4.47;;;;;;;;;;5043566;28;20434;-54
2021/12/13 12:49:54;;;;;;;10.00;4.50;;;;;;;;;;5018601;28;20481;-53
2021/12/13 12:52:22;;;;;;;7.87;6.43;;;;;;;;;;5042247;28;20444;-54
2021/12/13 12:54:48;;;;;;;7.53;5.37;;;;;;;;;;5023008;28;20575;-54
2021/12/13 12:57:17;;;;;;;8.77;6.93;;;;;;;;;;5041384;28;20446;-54
2021/12/13 12:59:43;;;;;;;10.13;7.50;;;;;;;;;;5036430;28;20588;-54
2021/12/13 13:02:13;;;;;;;11.63;7.70;;;;;;;;;;5008664;28;20443;-53
2021/12/13 13:04:39;;;;;;;15.47;8.50;;;;;;;;;;5045318;28;20443;-53
2021/12/13 13:07:08;;;;;;;11.00;9.90;;;;;;;;;;5035498;28;20430;-53
2021/12/13 13:09:43;;;;;;;14.70;6.50;;;;;;;;;;5039155;28;20537;-53
2021/12/13 13:12:21;;;;;;;19.93;8.87;;;;;;;;;;5020744;28;20484;-53
2021/12/13 13:14:53;;;;;;;13.80;9.03;;;;;;;;;;5040931;28;20426;-53
2021/12/13 13:17:20;;;;;;;11.20;8.90;;;;;;;;;;5012976;28;21047;-53
2021/12/13 13:19:47;;;;;;;10.33;7.97;;;;;;;;;;5052453;28;20430;-52
2021/12/13 13:22:32;;;;;;;19.20;9.03;;;;;;;;;;5021360;28;20439;-51
2021/12/13 13:25:01;;;;;;;10.00;7.70;;;;;;;;;;5040768;28;20516;-53
2021/12/13 13:27:28;;;;;;;12.97;8.13;;;;;;;;;;5028868;28;20986;-53
2021/12/13 13:29:54;;;;;;;10.17;8.40;;;;;;;;;;5039582;28;20474;-53
2021/12/13 13:32:24;;;;;;;11.03;9.60;;;;;;;;;;5018793;28;20813;-53
2021/12/13 13:34:53;;;;;;;11.40;8.00;;;;;;;;;;5043387;28;20492;-52
2021/12/13 13:37:22;;;;;;;16.53;9.30;;;;;;;;;;5013575;28;20975;-53
2021/12/13 13:39:50;;;;;;;12.90;8.30;;;;;;;;;;5040851;28;20462;-53
2021/12/13 13:42:19;;;;;;;15.83;9.87;;;;;;;;;;4998462;28;20431;-53
2021/12/13 13:44:53;;;;;;;10.50;8.30;;;;;;;;;;5043430;28;20438;-55
2021/12/13 13:47:30;;;;;;;10.27;8.00;;;;;;;;;;5005379;28;20873;-54
2021/12/13 13:49:56;;;;;;;12.77;8.17;;;;;;;;;;5040549;28;20535;-54
2021/12/13 13:52:26;;;;;;;15.07;9.03;;;;;;;;;;5007404;28;20972;-52
2021/12/13 13:54:54;;;;;;;12.80;9.10;;;;;;;;;;5036589;28;20443;-53
2021/12/13 13:57:24;;;;;;;11.47;8.80;;;;;;;;;;5020588;28;22549;-52
2021/12/13 13:59:53;;;;;;;10.13;7.83;;;;;;;;;;5037289;28;20460;-54
2021/12/13 14:02:31;;;;;;;12.07;8.93;;;;;;;;;;5014224;28;20449;-52
2021/12/13 14:04:59;;;;;;;12.10;8.10;;;;;;;;;;5035640;28;20449;-53
2021/12/13 14:07:26;;;;;;;17.30;8.77;;;;;;;;;;5017441;28;20565;-54
2021/12/13 14:10:02;;;;;;;11.17;8.67;;;;;;;;;;5038791;28;20474;-51
2021/12/13 14:12:36;;;;;;;13.03;7.50;;;;;;;;;;5000792;28;21030;-52
2021/12/13 14:15:15;;;;;;;9.43;8.43;;;;;;;;;;5037752;28;21275;-54
2021/12/13 14:17:45;;;;;;;13.93;10.00;;;;;;;;;;5025303;28;20434;-54
2021/12/13 14:20:31;;;;;;;13.73;9.33;;;;;;;;;;5042577;28;20458;-53
2021/12/13 14:22:59;;;;;;;14.73;9.00;;;;;;;;;;5019413;28;20860;-52
2021/12/13 14:25:33;;;;;;;11.20;8.50;;;;;;;;;;5043689;28;20445;-53
2021/12/13 14:27:59;;;;;;;13.20;9.70;;;;;;;;;;5025704;28;20962;-53
2021/12/13 14:30:28;;;;;;;16.00;10.13;;;;;;;;;;5044400;28;20504;-54
2021/12/13 14:32:55;;;;;;;12.07;8.50;;;;;;;;;;5037153;28;20430;-53
2021/12/13 14:35:25;;;;;;;11.87;9.10;;;;;;;;;;5040750;28;20446;-53
2021/12/13 14:37:52;;;;;;;10.43;7.37;;;;;;;;;;5020940;28;20438;-55
2021/12/13 14:40:18;;;;;;;15.80;8.83;;;;;;;;;;5047162;28;20446;-54
2021/12/13 14:42:44;;;;;;;14.13;7.47;;;;;;;;;;5008723;28;20458;-53
2021/12/13 14:45:17;;;;;;;11.73;7.70;;;;;;;;;;5045663;28;20472;-53
2021/12/13 14:47:48;;;;;;;12.23;8.20;;;;;;;;;;5024332;28;20469;-51
2021/12/13 14:50:17;;;;;;;15.53;8.57;;;;;;;;;;5045816;28;20466;-52
2021/12/13 14:52:44;;;;;;;10.03;6.50;;;;;;;;;;5022619;28;20434;-53
2021/12/13 14:55:11;;;;;;;9.80;7.27;;;;;;;;;;5043550;28;20549;-51
2021/12/13 14:57:38;;;;;;;9.67;7.20;;;;;;;;;;5035599;28;20450;-52
2021/12/13 15:00:09;;;;;;;9.00;7.60;;;;;;;;;;5043338;28;20474;-53
2021/12/13 15:02:36;;;;;;;10.93;7.50;;;;;;;;;;5033037;28;20478;-54
2021/12/13 15:05:04;;;;;;;9.53;7.10;;;;;;;;;;5038184;28;20442;-53
2021/12/13 15:07:37;;;;;;;9.87;6.70;;;;;;;;;;5022106;28;20446;-54
2021/12/13 15:10:11;;;;;;;8.40;6.73;;;;;;;;;;5042578;28;20589;-53
2021/12/13 15:12:58;;;;;;;18.27;7.80;;;;;;;;;;5033997;28;20468;-53
2021/12/13 15:15:32;;;;;;;9.47;6.03;;;;;;;;;;5020391;28;20590;-53
2021/12/13 15:18:00;;;;;;;8.00;6.10;;;;;;;;;;5029400;28;20542;-52
2021/12/13 15:20:28;;;;;;;27.80;18.83;;;;;;;;;;5038496;28;20472;-54
2021/12/13 15:22:56;;;;;;;11.23;8.00;;;;;;;;;;5027270;28;20439;-53
2021/12/13 15:25:43;;;;;;;7.30;6.33;;;;;;;;;;5044325;28;20473;-54
2021/12/13 15:28:10;;;;;;;6.50;4.60;;;;;;;;;;5038751;28;20536;-53
2021/12/13 15:30:36;;;;;;;6.60;4.97;;;;;;;;;;5047934;28;20439;-52
2021/12/13 15:33:03;;;;;;;7.30;6.17;;;;;;;;;;5019651;28;20466;-53
2021/12/13 15:35:31;;;;;;;4.47;4.03;;;;;;;;;;5044351;28;20439;-54
2021/12/13 15:37:58;;;;;;;5.10;4.60;;;;;;;;;;5031171;28;20928;-54
2021/12/13 15:40:31;;;;;;;5.07;3.97;;;;;;;;;;5045345;28;20463;-53